ADDS METAR Data INFO
IDs: Format: Raw Decoded Include TAF

Data at: 1011 UTC 22 May 2018

KMMH 220955Z AUTO 00000KT 10SM SCT037 BKN060 06/06 A3000 RMK AO2 T00570055
KMMH 220935Z AUTO 28005KT 10SM SCT040 SCT047 OVC060 06/06 A3000 RMK AO2 T00630060
KMMH 220915Z AUTO 30004KT 10SM SCT038 OVC046 07/06 A3001 RMK AO2 T00660061
KMMH 220855Z AUTO 26005KT 10SM BKN040 OVC046 07/06 A3001 RMK AO2 T00660061
KMMH 220835Z AUTO 00000KT 10SM -DZ SCT036 OVC048 07/06 A3001 RMK AO2 T00660060
KMMH 220815Z AUTO 00000KT 10SM SCT036 OVC050 07/06 A3002 RMK AO2 T00670058
KMMH 220755Z AUTO 28003KT 10SM OVC048 07/06 A3002 RMK AO2 T00660058
KMMH 220735Z AUTO 27004KT 10SM OVC048 07/06 A3002 RMK AO2 T00650058
KMMH 220715Z AUTO 30004KT 10SM SCT036 SCT043 OVC050 06/06 A3003 RMK AO2 T00630057
KMMH 220655Z AUTO 27006KT 10SM SCT036 SCT043 OVC055 06/06 A3003 RMK AO2 T00610056
KMMH 220635Z AUTO 28005KT 10SM SCT036 BKN055 05/05 A3003 RMK AO2 T00540051
KMMH 220615Z AUTO 34003KT 10SM SCT036 SCT055 SCT070 06/05 A3003 RMK AO2 T00560051
KMMH 220555Z AUTO 30003KT 10SM SCT036 SCT055 OVC070 07/06 A3003 RMK AO2 60004 T00670059 10086 20067 401100046
KMMH 220535Z AUTO 29005KT 10SM BKN038 OVC055 07/05 A3004 RMK AO2 T00710052
KMMH 220515Z AUTO 30005KT 10SM SCT034 BKN048 OVC055 07/06 A3004 RMK AO2 T00720056
KMMH 220455Z AUTO 29005KT 10SM OVC034 08/05 A3004 RMK AO2 T00750054
KMMH 220435Z AUTO 28005KT 10SM SCT023 OVC034 08/07 A3004 RMK AO2 T00750065
KMMH 220415Z AUTO 00000KT 10SM SCT023 OVC031 08/06 A3003 RMK AO2 T00750060
KMMH 220355Z AUTO 00000KT 10SM BKN031 OVC035 07/07 A3003 RMK AO2 T00720066
KMMH 220335Z AUTO 00000KT 10SM -RA BKN033 BKN038 OVC049 07/07 A3002 RMK AO2 T00720065
KMMH 220315Z AUTO 00000KT 10SM -DZ BKN033 OVC041 07/06 A3001 RMK AO2 T00740060
KMMH 220255Z AUTO 33004KT 10SM RA SCT033 BKN050 OVC065 08/07 A3001 RMK AO2 60004 T00750067
KMMH 220235Z AUTO 00000KT 10SM SCT035 OVC065 08/06 A3001 RMK AO2 T00770059
KMMH 220215Z AUTO 26003KT 10SM -RA BKN039 BKN046 OVC065 08/06 A3001 RMK AO2 T00760058
KMMH 220155Z AUTO 00000KT 4SM RA BKN032 BKN037 OVC043 08/05 A3000 RMK AO2 P0002 T00770054
KMMH 220135Z AUTO 09003KT 10SM BKN032 OVC039 08/05 A3000 RMK AO2 T00810053
KMMH 220115Z AUTO 00000KT 10SM BKN036 OVC044 08/05 A2999 RMK AO2 T00810050
KMMH 220055Z AUTO 29004KT 10SM RA OVC042 08/05 A2999 RMK AO2 T00770052
KMMH 220035Z AUTO 29008KT 7SM -RA BKN033 OVC044 08/06 A2999 RMK AO2 T00800056
KMMH 220015Z AUTO 29004KT 10SM -RA SCT025 OVC033 09/05 A2999 RMK AO2 T00860046
KMMH 212355Z AUTO 25005KT 10SM SCT020 BKN031 OVC050 08/06 A2999 RMK AO2 P0001 60015 T00810055 10110 20058
KMMH 212335Z AUTO 26009KT 10SM RA SCT020 OVC033 08/05 A2999 RMK AO2 P0001 T00830050
KMMH 212315Z AUTO 11004KT 10SM BKN035 OVC042 09/05 A2998 RMK AO2 T00910048
KMMH 212255Z AUTO 11006KT 10SM -RA SCT030 OVC043 10/05 A2997 RMK AO2 T00960052
KMMH 212235Z AUTO 13005KT 10SM SCT028 BKN034 OVC045 11/06 A2998 RMK AO2 T01090061
KMMH 212215Z AUTO 00000KT 10SM SCT034 OVC042 10/04 A2998 RMK AO2 T01030039
KMMH 212155Z AUTO 00000KT 10SM SCT045 OVC050 10/04 A2999 RMK AO2 T01010043
KMMH 212135Z AUTO 00000KT 10SM SCT042 BKN055 OVC065 10/04 A2999 RMK AO2 T01000043
KMMH 212115Z AUTO 21008KT 10SM SCT044 OVC065 08/05 A2999 RMK AO2 T00820046
KMMH 212055Z AUTO 20010KT 10SM RA SCT027 SCT034 OVC045 07/05 A2999 RMK AO2 P0005 60014 T00720046
KMMH 212035Z AUTO 21010KT 10SM -RA BKN031 OVC039 06/04 A2999 RMK AO2 P0005 T00640042
KMMH 212015Z AUTO 20013KT 3SM RA BKN027 OVC033 06/04 A2999 RMK AO2 P0004 T00580037
KMMH 211955Z AUTO 16010KT 5SM RA SCT018 SCT029 OVC035 06/06 A2999 RMK AO2 P0009 T00620058
KMMH 211935Z AUTO 11011G15KT 5SM RA SCT018 BKN027 OVC032 06/05 A2999 RMK AO2 P0002 T00630047
KMMH 211915Z AUTO 00000KT 10SM -RA OVC030 09/06 A2997 RMK AO2 T00880055
KMMH 211855Z AUTO 29008KT 10SM -RA BKN025 OVC032 10/05 A2997 RMK AO2 T00970050
KMMH 211835Z AUTO 28010KT 10SM BKN025 BKN032 OVC080 10/05 A2997 RMK AO2 T01020047
KMMH 211815Z AUTO 26009KT 10SM SCT033 SCT040 BKN080 11/06 A2997 RMK AO2 T01050056
KMMH 211755Z AUTO 26010KT 10SM SCT022 BKN034 OVC075 11/06 A2998 RMK AO2 60004 T01060058 10106 20055
KMMH 211735Z AUTO 28008KT 10SM OVC022 09/05 A2998 RMK AO2 T00890054
KMMH 211715Z AUTO 25007KT 10SM SCT020 BKN025 OVC033 08/05 A2998 RMK AO2 T00830051
KMMH 211655Z AUTO 26007KT 10SM SCT020 BKN036 OVC044 08/05 A2997 RMK AO2 T00820052
KMMH 211635Z AUTO 28009KT 10SM SCT018 SCT029 OVC046 08/05 A2998 RMK AO2 T00800050
KMMH 211615Z AUTO 27008KT 10SM SCT032 OVC044 08/05 A2998 RMK AO2 T00760049
KMMH 211555Z AUTO 27008KT 10SM SCT035 BKN044 OVC050 07/04 A2998 RMK AO2 P0003 T00700044
KMMH 211535Z AUTO 26008KT 7SM -RA SCT022 BKN042 OVC050 07/05 A2998 RMK AO2 P0003 T00650052
KMMH 211515Z AUTO 28009KT 7SM RA SCT025 OVC034 06/04 A2998 RMK AO2 P0001 T00600042
KMMH 211455Z AUTO 29006KT 260V330 10SM RA BKN038 OVC044 06/04 A2997 RMK AO2 P0001 60001 T00620036
KMMH 211435Z AUTO 29007KT 10SM BKN045 OVC050 07/04 A2997 RMK AO2 T00650037
KMMH 211415Z AUTO 29010KT 10SM BKN043 OVC050 06/04 A2997 RMK AO2 T00620039
KMMH 211355Z AUTO 29007KT 10SM SCT041 BKN048 BKN055 06/04 A2997 RMK AO2 T00630038
KMMH 211335Z AUTO 29008KT 10SM BKN050 BKN080 06/04 A2996 RMK AO2 T00560037
KMMH 211315Z AUTO 30009KT 10SM SCT019 SCT045 OVC050 06/04 A2996 RMK AO2 T00570036
KMMH 211255Z AUTO 29008KT 10SM SCT019 OVC050 06/03 A2997 RMK AO2 T00580034
KMMH 211235Z AUTO 28010KT 10SM SCT020 OVC050 06/04 A2997 RMK AO2 T00550035
KMMH 211215Z AUTO 28010KT 10SM SCT030 OVC050 06/03 A2996 RMK AO2 T00550033
KMMH 211155Z AUTO 28010KT 10SM RA SCT041 OVC050 06/03 A2997 RMK AO2 60026 70026 T00550032 10098 20046
KMMH 211135Z AUTO 28010KT 10SM SCT041 OVC050 06/03 A2997 RMK AO2 T00580032
KMMH 211115Z AUTO 29006KT 10SM BKN050 BKN120 06/03 A2997 RMK AO2 T00570032
KMMH 211055Z AUTO 29007KT 10SM SCT060 BKN110 05/03 A2997 RMK AO2 T00510034
KMMH 211035Z AUTO 27006KT 10SM SCT060 OVC110 05/03 A2997 RMK AO2 T00500030
KMMH 211015Z AUTO 29004G08KT 10SM OVC110 05/04 A2997 RMK AO2 T00460036
KMMH 210955Z AUTO 31012KT 10SM SCT009 OVC090 05/04 A2997 RMK AO2 P0002 T00490040
KMMH 210935Z AUTO 29014KT 10SM SCT011 BKN055 OVC080 05/05 A2998 RMK AO2 P0002 T00540048
KMMH 210920Z AUTO 30012KT 10SM -RA SCT029 BKN049 OVC065 05/05 A2998 RMK AO2 P0002 T00540052
KMMH 210855Z AUTO 29005KT 7SM RA OVC029 06/05 A3001 RMK AO2 P0010 60024 T00590046
KMMH 210835Z AUTO 00000KT 10SM -RA OVC031 06/05 A3001 RMK AO2 P0007 T00580049
KMMH 210815Z AUTO 00000KT 5SM RA OVC033 06/05 A3001 RMK AO2 P0004 T00590054
KMMH 210755Z AUTO 12005KT 10SM -RA OVC033 06/05 A3001 RMK AO2 P0014 T00580053
KMMH 210735Z AUTO 11006KT 7SM RA SCT020 BKN029 OVC034 06/06 A3001 RMK AO2 P0011 T00600055
KMMH 210715Z AUTO 13007KT 5SM +RA OVC027 07/06 A3001 RMK AO2 P0007 T00660061
KMMH 210655Z AUTO 11009KT 10SM RA BKN029 OVC036 09/04 A3001 RMK AO2 T00890035
KMMH 210635Z AUTO 29006KT 10SM OVC040 10/03 A3001 RMK AO2 T00970025
KMMH 210615Z AUTO 29010G16KT 10SM BKN040 OVC055 10/03 A3000 RMK AO2 T00980025
KMMH 210555Z AUTO 29008KT 10SM BKN042 BKN055 OVC080 10/02 A3000 RMK AO2 T00980017 10170 20096 402001015
KMMH 210535Z AUTO 29013KT 10SM SCT048 BKN070 OVC080 10/00 A3000 RMK AO2 T01000000
KMMH 210515Z AUTO 29010KT 10SM OVC060 10/M01 A2999 RMK AO2 T01001009
KMMH 210455Z AUTO 26012KT 10SM BKN060 OVC080 10/M01 A2998 RMK AO2 T01021012
KMMH 210435Z AUTO 31012G17KT 10SM OVC080 10/00 A2998 RMK AO2 T00990000
KMMH 210415Z AUTO 33009KT 10SM BKN080 10/01 A2997 RMK AO2 T00960012
KMMH 210355Z AUTO 34006KT 10SM CLR 11/01 A2996 RMK AO2 T01050005
KMMH 210335Z AUTO 17005KT 10SM SCT060 12/00 A2996 RMK AO2 T01150003
KMMH 210315Z AUTO 18008KT 10SM OVC060 12/01 A2996 RMK AO2 T01230010
KMMH 210255Z AUTO 26004KT 10SM OVC060 12/01 A2996 RMK AO2 T01230006
KMMH 210235Z AUTO 26009KT 230V290 10SM OVC070 13/00 A2995 RMK AO2 T01300002
KMMH 210215Z AUTO 25008G21KT 210V290 10SM BKN070 13/01 A2995 RMK AO2 T01330006
KMMH 210155Z AUTO 30015G23KT 10SM CLR 14/00 A2994 RMK AO2 T01400004
KMMH 210135Z AUTO 28011G20KT 10SM CLR 15/00 A2994 RMK AO2 T01520001
KMMH 210115Z AUTO 27008G18KT 230V300 10SM CLR 15/00 A2994 RMK AO2 T01531003
KMMH 210055Z AUTO 28015G23KT 10SM BKN110 15/00 A2995 RMK AO2 T01501002
KMMH 210035Z AUTO 29018G28KT 10SM SCT090 BKN110 15/M01 A2995 RMK AO2 T01511009
KMMH 210015Z AUTO 28018G22KT 10SM BKN110 16/M01 A2995 RMK AO2 T01611014
KMMH 202355Z AUTO 28012G21KT 10SM SCT110 17/M02 A2995 RMK AO2 T01681019 10200 20160
KMMH 202335Z AUTO 27017G26KT 10SM CLR 16/M02 A2996 RMK AO2 T01601022
KMMH 202315Z AUTO 30017G24KT 10SM SCT095 16/M02 A2997 RMK AO2 T01641022
KMMH 202255Z AUTO 26011G19KT 10SM SCT075 BKN095 17/M01 A2997 RMK AO2 T01711015
KMMH 202235Z AUTO 27014G22KT 10SM SCT075 SCT095 17/M01 A2998 RMK AO2 T01671014
KMMH 202215Z AUTO 29017G22KT 10SM BKN075 BKN095 BKN110 17/M02 A2998 RMK AO2 T01691017